createdAt,value
2023-03-22T00:00:34.531Z,0.00
2023-03-22T00:01:34.500Z,0.00
2023-03-22T00:02:34.557Z,0.00
2023-03-22T00:03:34.509Z,0.00
2023-03-22T00:04:34.474Z,0.00
2023-03-22T00:05:37.284Z,0.00
2023-03-22T00:06:34.473Z,0.00
2023-03-22T00:07:34.429Z,0.00
2023-03-22T00:08:34.427Z,0.00
2023-03-22T00:09:34.389Z,0.00
2023-03-22T00:10:34.410Z,0.00
2023-03-22T00:11:34.399Z,0.00
2023-03-22T00:12:34.378Z,0.00
2023-03-22T00:13:35.582Z,0.00
2023-03-22T00:14:34.652Z,0.00
2023-03-22T00:15:34.344Z,0.00
2023-03-22T00:16:34.384Z,0.00
2023-03-22T00:17:34.318Z,0.00
2023-03-22T00:18:34.320Z,0.00
2023-03-22T00:19:34.381Z,0.00
2023-03-22T00:20:34.296Z,0.00
2023-03-22T00:21:36.975Z,0.00
2023-03-22T00:22:34.253Z,0.00
2023-03-22T00:23:34.232Z,0.00
2023-03-22T00:24:34.231Z,0.00
2023-03-22T00:25:34.237Z,0.00
2023-03-22T00:26:34.209Z,0.00
2023-03-22T00:27:34.192Z,0.00
2023-03-22T00:28:36.973Z,0.00
2023-03-22T00:29:34.164Z,0.00
2023-03-22T00:30:34.193Z,0.00
2023-03-22T00:31:34.207Z,0.00
2023-03-22T00:32:34.144Z,0.00
2023-03-22T00:33:34.197Z,0.00
2023-03-22T00:34:34.120Z,0.00
2023-03-22T00:35:34.149Z,0.00
2023-03-22T00:36:34.089Z,0.00
2023-03-22T00:37:34.090Z,0.00
2023-03-22T00:38:42.000Z,0.00
2023-03-22T00:39:35.056Z,0.00
2023-03-22T00:40:34.059Z,0.00
2023-03-22T00:41:34.038Z,0.00
2023-03-22T00:42:34.018Z,0.00
2023-03-22T00:43:34.028Z,0.00
2023-03-22T00:44:34.007Z,0.00
2023-03-22T00:45:34.006Z,0.00
2023-03-22T00:46:34.032Z,0.00
2023-03-22T00:47:33.993Z,0.00
2023-03-22T00:48:33.959Z,0.00
2023-03-22T00:49:33.948Z,0.00
2023-03-22T00:50:33.958Z,0.00
2023-03-22T00:51:33.909Z,0.00
2023-03-22T00:52:33.914Z,0.00
2023-03-22T00:53:33.888Z,0.00
2023-03-22T00:54:33.882Z,0.00
2023-03-22T00:55:33.892Z,0.00
2023-03-22T00:56:33.948Z,0.00
2023-03-22T00:57:34.133Z,0.00
2023-03-22T00:58:33.841Z,0.00
2023-03-22T00:59:33.830Z,0.00
2023-03-22T01:00:33.807Z,0.00
2023-03-22T01:01:33.898Z,0.00
2023-03-22T01:02:33.798Z,0.00
2023-03-22T01:03:33.807Z,0.00
2023-03-22T01:04:33.772Z,0.00
2023-03-22T01:05:34.038Z,0.00
2023-03-22T01:06:33.800Z,0.00
2023-03-22T01:07:33.743Z,0.00
2023-03-22T01:08:33.742Z,0.00
2023-03-22T01:09:33.757Z,0.00
2023-03-22T01:10:33.708Z,0.00
2023-03-22T01:11:34.000Z,0.00
2023-03-22T01:12:33.677Z,0.00
2023-03-22T01:13:33.745Z,0.00
2023-03-22T01:14:33.651Z,0.00
2023-03-22T01:15:33.646Z,0.00
2023-03-22T01:16:33.684Z,0.00
2023-03-22T01:17:33.616Z,0.00
2023-03-22T01:18:33.602Z,0.00
2023-03-22T01:19:33.593Z,0.00
2023-03-22T01:20:34.778Z,0.00
2023-03-22T01:21:33.601Z,0.00
2023-03-22T01:22:33.545Z,0.00
2023-03-22T01:23:33.551Z,0.00
2023-03-22T01:24:33.529Z,0.00
2023-03-22T01:25:33.505Z,0.00
2023-03-22T01:26:33.527Z,0.00
2023-03-22T01:27:33.549Z,0.00
2023-03-22T01:28:33.506Z,0.00
2023-03-22T01:29:33.483Z,0.00
2023-03-22T01:30:33.514Z,0.00
2023-03-22T01:31:33.456Z,0.00
2023-03-22T01:32:33.435Z,0.00
2023-03-22T01:33:33.428Z,0.00
2023-03-22T01:34:33.440Z,0.00
2023-03-22T01:35:33.425Z,0.00
2023-03-22T01:36:33.427Z,0.00
2023-03-22T01:37:33.378Z,0.00
2023-03-22T01:38:33.391Z,0.00
2023-03-22T01:39:33.358Z,0.00
2023-03-22T01:40:33.360Z,0.00
2023-03-22T01:41:33.363Z,0.00
2023-03-22T01:42:33.328Z,0.00
2023-03-22T01:43:33.330Z,0.00
2023-03-22T01:44:33.301Z,0.00
2023-03-22T01:45:33.323Z,0.00
2023-03-22T01:46:33.426Z,0.00
2023-03-22T01:47:33.265Z,0.00
2023-03-22T01:48:33.274Z,0.00
2023-03-22T01:49:34.001Z,0.00
2023-03-22T01:50:33.236Z,0.00
2023-03-22T01:51:33.224Z,0.00
2023-03-22T01:52:33.226Z,0.00
2023-03-22T01:53:33.211Z,0.00
2023-03-22T01:54:33.187Z,0.00
2023-03-22T01:55:33.216Z,0.00
2023-03-22T01:56:33.886Z,0.00
2023-03-22T01:57:33.162Z,0.00
2023-03-22T01:58:33.148Z,0.00
2023-03-22T01:59:33.136Z,0.00
2023-03-22T02:00:33.119Z,0.00
2023-03-22T02:01:33.459Z,0.00
2023-03-22T02:02:33.134Z,0.00
2023-03-22T02:03:33.093Z,0.00
2023-03-22T02:04:33.076Z,0.00
2023-03-22T02:05:33.055Z,0.00
2023-03-22T02:06:33.061Z,0.00
2023-03-22T02:07:33.113Z,0.00
2023-03-22T02:08:33.043Z,0.00
2023-03-22T02:09:33.030Z,0.00
2023-03-22T02:10:32.997Z,0.00
2023-03-22T02:11:33.029Z,0.00
2023-03-22T02:12:32.994Z,0.00
2023-03-22T02:13:32.978Z,0.00
2023-03-22T02:14:32.956Z,0.00
2023-03-22T02:15:32.987Z,0.00
2023-03-22T02:16:32.938Z,0.00
2023-03-22T02:17:32.929Z,0.00
2023-03-22T02:18:32.910Z,0.00
2023-03-22T02:19:32.908Z,0.00
2023-03-22T02:20:32.902Z,0.00
2023-03-22T02:21:32.890Z,0.00
2023-03-22T02:22:32.864Z,0.00
2023-03-22T02:23:32.876Z,0.00
2023-03-22T02:24:32.896Z,0.00
2023-03-22T02:25:32.825Z,0.00
2023-03-22T02:26:32.866Z,0.00
2023-03-22T02:27:32.798Z,0.00
2023-03-22T02:28:32.788Z,0.00
2023-03-22T02:29:32.778Z,0.00
2023-03-22T02:30:32.778Z,0.00
2023-03-22T02:31:33.074Z,0.00
2023-03-22T02:32:32.758Z,0.00
2023-03-22T02:33:32.730Z,0.00
2023-03-22T02:34:32.727Z,0.00
2023-03-22T02:35:32.715Z,0.00
2023-03-22T02:36:32.752Z,0.00
2023-03-22T02:37:32.685Z,0.00
2023-03-22T02:38:32.701Z,0.00
2023-03-22T02:39:32.666Z,0.00
2023-03-22T02:40:32.647Z,0.00
2023-03-22T02:41:32.656Z,0.00
2023-03-22T02:42:32.630Z,0.00
2023-03-22T02:43:32.632Z,0.00
2023-03-22T02:44:32.636Z,0.00
2023-03-22T02:45:32.581Z,0.00
2023-03-22T02:46:32.631Z,0.00
2023-03-22T02:47:32.588Z,0.00
2023-03-22T02:48:32.564Z,0.00
2023-03-22T02:49:32.566Z,0.00
2023-03-22T02:50:32.533Z,0.00
2023-03-22T02:51:32.540Z,0.00
2023-03-22T02:52:32.509Z,0.00
2023-03-22T02:53:32.510Z,0.00
2023-03-22T02:54:32.492Z,0.00
2023-03-22T02:55:32.488Z,0.00
2023-03-22T02:56:32.495Z,0.00
2023-03-22T02:57:32.452Z,0.00
2023-03-22T02:58:32.439Z,0.00
2023-03-22T02:59:32.428Z,0.00
2023-03-22T03:00:32.480Z,0.00
2023-03-22T03:01:32.421Z,0.00
2023-03-22T03:02:32.416Z,0.00
2023-03-22T03:03:32.386Z,0.00
2023-03-22T03:04:32.372Z,0.00
2023-03-22T03:05:32.361Z,0.00
2023-03-22T03:06:32.370Z,0.00
2023-03-22T03:07:32.350Z,0.00
2023-03-22T03:08:32.328Z,0.00
2023-03-22T03:09:32.306Z,0.00
2023-03-22T03:10:32.296Z,0.00
2023-03-22T03:11:32.489Z,0.00
2023-03-22T03:12:32.283Z,0.00
2023-03-22T03:13:32.263Z,0.00
2023-03-22T03:14:32.271Z,0.00
2023-03-22T03:15:32.251Z,0.00
2023-03-22T03:16:32.280Z,0.00
2023-03-22T03:17:32.223Z,0.00
2023-03-22T03:18:32.480Z,0.00
2023-03-22T03:19:32.204Z,0.00
2023-03-22T03:20:32.189Z,0.00
2023-03-22T03:21:32.180Z,0.00
2023-03-22T03:22:32.153Z,0.00
2023-03-22T03:23:32.153Z,0.00
2023-03-22T03:24:32.140Z,0.00
2023-03-22T03:25:32.129Z,0.00
2023-03-22T03:26:32.114Z,0.00
2023-03-22T03:27:32.120Z,0.00
2023-03-22T03:28:32.093Z,0.00
2023-03-22T03:29:32.069Z,0.00
2023-03-22T03:30:32.058Z,0.00
2023-03-22T03:31:32.093Z,0.00
2023-03-22T03:32:32.036Z,0.00
2023-03-22T03:33:32.023Z,0.00
2023-03-22T03:34:32.022Z,0.00
2023-03-22T03:35:32.044Z,0.00
2023-03-22T03:36:32.012Z,0.00
2023-03-22T03:37:31.975Z,0.00
2023-03-22T03:38:31.984Z,0.00
2023-03-22T03:39:31.960Z,0.00
2023-03-22T03:40:31.953Z,0.00
2023-03-22T03:41:31.944Z,0.00
2023-03-22T03:42:31.927Z,0.00
2023-03-22T03:43:31.914Z,0.00
2023-03-22T03:44:31.909Z,0.00
2023-03-22T03:45:31.919Z,0.00
2023-03-22T03:46:31.907Z,0.00
2023-03-22T03:47:31.864Z,0.00
2023-03-22T03:48:31.853Z,0.00
2023-03-22T03:49:31.870Z,0.00
2023-03-22T03:50:31.826Z,0.00
2023-03-22T03:51:31.829Z,0.00
2023-03-22T03:52:31.806Z,0.00
2023-03-22T03:53:31.799Z,0.00
2023-03-22T03:54:31.790Z,0.00
2023-03-22T03:55:31.788Z,0.00
2023-03-22T03:56:31.779Z,0.00
2023-03-22T03:57:31.753Z,0.00
2023-03-22T03:58:31.762Z,0.00
2023-03-22T03:59:31.744Z,0.00
2023-03-22T04:00:31.739Z,0.00
2023-03-22T04:01:31.763Z,0.00
2023-03-22T04:02:31.733Z,0.00
2023-03-22T04:03:31.707Z,0.00
2023-03-22T04:04:31.734Z,0.00
2023-03-22T04:05:31.953Z,0.00
2023-03-22T04:06:31.660Z,0.00
2023-03-22T04:07:31.637Z,0.00
2023-03-22T04:08:31.612Z,0.00
2023-03-22T04:09:31.626Z,0.00
2023-03-22T04:10:31.598Z,0.00
2023-03-22T04:11:31.610Z,0.00
2023-03-22T04:12:31.572Z,0.00
2023-03-22T04:13:31.563Z,0.00
2023-03-22T04:14:31.552Z,0.00
2023-03-22T04:15:31.552Z,0.00
2023-03-22T04:16:31.589Z,0.00
2023-03-22T04:17:31.522Z,0.00
2023-03-22T04:18:31.510Z,0.00
2023-03-22T04:19:31.504Z,0.00
2023-03-22T04:20:31.473Z,0.00
2023-03-22T04:21:31.488Z,0.00
2023-03-22T04:22:31.463Z,0.00
2023-03-22T04:23:31.458Z,0.00
2023-03-22T04:24:31.441Z,0.00
2023-03-22T04:25:31.454Z,0.00
2023-03-22T04:26:31.755Z,0.00
2023-03-22T04:27:31.401Z,0.00
2023-03-22T04:28:31.425Z,0.00
2023-03-22T04:29:31.690Z,0.00
2023-03-22T04:30:31.396Z,0.00
2023-03-22T04:31:31.427Z,0.00
2023-03-22T04:32:31.351Z,0.00
2023-03-22T04:33:31.351Z,0.00
2023-03-22T04:34:31.322Z,0.00
2023-03-22T04:35:31.309Z,0.00
2023-03-22T04:36:31.328Z,0.00
2023-03-22T04:37:31.293Z,0.00
2023-03-22T04:38:31.273Z,0.00
2023-03-22T04:39:31.283Z,0.00
2023-03-22T04:40:31.256Z,0.00
2023-03-22T04:41:31.272Z,0.00
2023-03-22T04:42:31.251Z,0.00
2023-03-22T04:43:31.220Z,0.00
2023-03-22T04:44:31.214Z,0.00
2023-03-22T04:45:31.194Z,0.00
2023-03-22T04:46:31.277Z,0.00
2023-03-22T04:47:31.188Z,0.00
2023-03-22T04:48:31.162Z,0.00
2023-03-22T04:49:31.155Z,0.00
2023-03-22T04:50:31.475Z,0.00
2023-03-22T04:51:31.132Z,0.00
2023-03-22T04:52:31.138Z,0.00
2023-03-22T04:53:31.097Z,0.00
2023-03-22T04:54:31.107Z,0.00
2023-03-22T04:55:31.083Z,0.00
2023-03-22T04:56:31.075Z,0.00
2023-03-22T04:57:31.073Z,0.00
2023-03-22T04:58:31.326Z,0.00
2023-03-22T04:59:31.033Z,0.00
2023-03-22T05:00:31.025Z,0.00
2023-03-22T05:01:31.019Z,0.00
2023-03-22T05:02:31.119Z,0.00
2023-03-22T05:03:30.994Z,0.00
2023-03-22T05:04:30.974Z,0.00
2023-03-22T05:05:30.976Z,0.00
2023-03-22T05:06:30.963Z,0.00
2023-03-22T05:07:30.987Z,0.00
2023-03-22T05:08:30.947Z,0.00
2023-03-22T05:09:30.923Z,0.00
2023-03-22T05:10:30.914Z,0.00
2023-03-22T05:11:30.926Z,0.00
2023-03-22T05:12:30.911Z,0.00
2023-03-22T05:13:30.877Z,0.00
2023-03-22T05:14:30.884Z,0.00
2023-03-22T05:15:31.203Z,0.00
2023-03-22T05:16:30.892Z,0.00
2023-03-22T05:17:30.850Z,0.00
2023-03-22T05:18:30.845Z,0.00
2023-03-22T05:19:30.807Z,0.00
2023-03-22T05:20:30.807Z,0.00
2023-03-22T05:21:30.796Z,0.00
2023-03-22T05:22:30.844Z,0.00
2023-03-22T05:23:30.775Z,0.00
2023-03-22T05:24:31.060Z,0.00
2023-03-22T05:25:30.749Z,5.62
2023-03-22T05:26:30.746Z,5.62
2023-03-22T05:27:30.740Z,5.62
2023-03-22T05:28:30.721Z,5.62
2023-03-22T05:29:30.696Z,5.62
2023-03-22T05:30:30.685Z,5.62
2023-03-22T05:31:30.851Z,5.62
2023-03-22T05:32:30.696Z,11.25
2023-03-22T05:33:30.667Z,11.25
2023-03-22T05:34:30.973Z,11.25
2023-03-22T05:35:30.650Z,11.25
2023-03-22T05:36:30.750Z,16.88
2023-03-22T05:37:30.621Z,16.88
2023-03-22T05:38:30.613Z,16.88
2023-03-22T05:39:30.589Z,22.50
2023-03-22T05:40:33.449Z,22.50
2023-03-22T05:41:30.570Z,28.12
2023-03-22T05:42:30.570Z,28.12
2023-03-22T05:43:30.541Z,33.75
2023-03-22T05:44:30.563Z,33.75
2023-03-22T05:45:30.862Z,39.38
2023-03-22T05:46:30.957Z,45.00
2023-03-22T05:47:31.683Z,45.00
2023-03-22T05:48:30.497Z,50.62
2023-03-22T05:49:30.483Z,50.62
2023-03-22T05:50:33.881Z,56.25
2023-03-22T05:51:34.292Z,56.25
2023-03-22T05:52:30.453Z,56.25
2023-03-22T05:53:30.424Z,56.25
2023-03-22T05:54:30.435Z,56.25
2023-03-22T05:55:30.416Z,56.25
2023-03-22T05:56:30.386Z,61.88
2023-03-22T05:57:31.244Z,67.50
2023-03-22T05:58:30.365Z,67.50
2023-03-22T05:59:30.370Z,67.50
2023-03-22T06:00:30.696Z,61.88
2023-03-22T06:01:30.340Z,67.50
2023-03-22T06:02:30.358Z,67.50
2023-03-22T06:03:30.616Z,67.50
2023-03-22T06:04:30.309Z,73.12
2023-03-22T06:05:30.286Z,78.75
2023-03-22T06:06:30.286Z,78.75
2023-03-22T06:07:30.297Z,84.38
2023-03-22T06:08:30.261Z,95.62
2023-03-22T06:09:30.263Z,101.25
2023-03-22T06:10:30.249Z,112.50
2023-03-22T06:11:30.757Z,112.50
2023-03-22T06:12:30.339Z,123.75
2023-03-22T06:13:30.229Z,129.38
2023-03-22T06:14:30.190Z,135.00
2023-03-22T06:15:30.669Z,129.38
2023-03-22T06:16:32.021Z,135.00
2023-03-22T06:17:31.368Z,146.25
2023-03-22T06:18:30.265Z,146.25
2023-03-22T06:19:30.730Z,151.88
2023-03-22T06:20:31.102Z,157.50
2023-03-22T06:21:30.109Z,163.12
2023-03-22T06:22:30.109Z,168.75
2023-03-22T06:23:30.110Z,174.38
2023-03-22T06:24:30.093Z,174.38
2023-03-22T06:25:31.113Z,180.00
2023-03-22T06:26:30.063Z,180.00
2023-03-22T06:27:30.918Z,180.00
2023-03-22T06:28:30.053Z,174.38
2023-03-22T06:29:30.328Z,174.38
2023-03-22T06:30:30.078Z,174.38
2023-03-22T06:31:30.360Z,174.38
2023-03-22T06:32:30.612Z,163.12
2023-03-22T06:33:30.851Z,157.50
2023-03-22T06:34:30.754Z,157.50
2023-03-22T06:35:29.997Z,157.50
2023-03-22T06:36:29.917Z,163.12
2023-03-22T06:37:29.941Z,168.75
2023-03-22T06:38:29.894Z,157.50
2023-03-22T06:39:29.887Z,151.88
2023-03-22T06:40:30.682Z,151.88
2023-03-22T06:41:30.171Z,146.25
2023-03-22T06:42:29.882Z,151.88
2023-03-22T06:43:29.843Z,163.12
2023-03-22T06:44:29.831Z,163.12
2023-03-22T06:45:29.839Z,157.50
2023-03-22T06:46:29.887Z,151.88
2023-03-22T06:47:29.812Z,163.12
2023-03-22T06:48:29.878Z,174.38
2023-03-22T06:49:29.772Z,180.00
2023-03-22T06:50:29.771Z,191.25
2023-03-22T06:51:29.758Z,196.88
2023-03-22T06:52:29.751Z,202.50
2023-03-22T06:53:29.732Z,208.12
2023-03-22T06:54:29.730Z,208.12
2023-03-22T06:55:29.712Z,208.12
2023-03-22T06:56:29.710Z,208.12
2023-03-22T06:57:29.709Z,208.12
2023-03-22T06:58:29.680Z,202.50
2023-03-22T06:59:29.685Z,208.12
2023-03-22T07:00:30.832Z,208.12
2023-03-22T07:01:29.645Z,213.75
2023-03-22T07:02:29.643Z,202.50
2023-03-22T07:03:29.614Z,202.50
2023-03-22T07:04:30.462Z,208.12
2023-03-22T07:05:29.581Z,208.12
2023-03-22T07:06:29.576Z,213.75
2023-03-22T07:07:29.668Z,219.38
2023-03-22T07:08:29.555Z,230.62
2023-03-22T07:09:29.535Z,236.25
2023-03-22T07:10:30.364Z,241.88
2023-03-22T07:11:29.518Z,241.88
2023-03-22T07:12:30.688Z,264.38
2023-03-22T07:13:29.505Z,281.25
2023-03-22T07:14:30.379Z,286.88
2023-03-22T07:15:29.467Z,303.75
2023-03-22T07:16:29.496Z,309.38
2023-03-22T07:17:29.485Z,315.00
2023-03-22T07:18:29.438Z,343.12
2023-03-22T07:19:30.528Z,348.75
2023-03-22T07:20:29.430Z,371.25
2023-03-22T07:21:29.408Z,376.88
2023-03-22T07:22:29.407Z,354.38
2023-03-22T07:23:29.377Z,331.88
2023-03-22T07:24:29.388Z,343.12
2023-03-22T07:25:29.358Z,337.50
2023-03-22T07:26:29.351Z,331.88
2023-03-22T07:27:29.388Z,331.88
2023-03-22T07:28:30.103Z,337.50
2023-03-22T07:29:29.308Z,348.75
2023-03-22T07:30:29.631Z,343.12
2023-03-22T07:31:29.302Z,337.50
2023-03-22T07:32:29.691Z,337.50
2023-03-22T07:33:29.270Z,365.62
2023-03-22T07:34:29.264Z,382.50
2023-03-22T07:35:30.045Z,382.50
2023-03-22T07:36:29.242Z,382.50
2023-03-22T07:37:29.235Z,388.12
2023-03-22T07:38:29.208Z,382.50
2023-03-22T07:39:29.220Z,388.12
2023-03-22T07:40:29.262Z,388.12
2023-03-22T07:41:29.174Z,382.50
2023-03-22T07:42:29.184Z,393.75
2023-03-22T07:43:29.296Z,376.88
2023-03-22T07:44:29.145Z,365.62
2023-03-22T07:45:29.175Z,365.62
2023-03-22T07:46:29.477Z,360.00
2023-03-22T07:47:40.414Z,371.25
2023-03-22T07:48:30.137Z,371.25
2023-03-22T07:49:29.108Z,371.25
2023-03-22T07:50:29.114Z,371.25
2023-03-22T07:51:29.079Z,371.25
2023-03-22T07:52:29.921Z,371.25
2023-03-22T07:53:29.059Z,376.88
2023-03-22T07:54:33.747Z,376.88
2023-03-22T07:55:30.021Z,371.25
2023-03-22T07:56:30.079Z,365.62
2023-03-22T07:57:29.034Z,376.88
2023-03-22T07:58:29.069Z,376.88
2023-03-22T07:59:28.991Z,371.25
2023-03-22T08:00:30.229Z,348.75
2023-03-22T08:01:28.945Z,337.50
2023-03-22T08:02:29.263Z,326.25
2023-03-22T08:03:28.991Z,320.62
2023-03-22T08:04:28.917Z,309.38
2023-03-22T08:05:28.914Z,292.50
2023-03-22T08:06:30.143Z,270.00
2023-03-22T08:07:30.024Z,253.12
2023-03-22T08:08:29.155Z,241.88
2023-03-22T08:09:29.827Z,230.62
2023-03-22T08:10:28.868Z,236.25
2023-03-22T08:11:29.638Z,236.25
2023-03-22T08:12:28.834Z,241.88
2023-03-22T08:13:29.958Z,241.88
2023-03-22T08:14:36.189Z,236.25
2023-03-22T08:15:30.784Z,236.25
2023-03-22T08:16:28.820Z,236.25
2023-03-22T08:17:29.572Z,247.50
2023-03-22T08:18:28.772Z,258.75
2023-03-22T08:19:29.450Z,264.38
2023-03-22T08:20:28.763Z,270.00
2023-03-22T08:21:29.697Z,286.88
2023-03-22T08:22:28.703Z,303.75
2023-03-22T08:23:40.486Z,343.12
2023-03-22T08:24:29.682Z,354.38
2023-03-22T08:25:28.687Z,343.12
2023-03-22T08:26:28.675Z,354.38
2023-03-22T08:27:28.672Z,405.00
2023-03-22T08:28:28.644Z,410.62
2023-03-22T08:29:28.636Z,421.88
2023-03-22T08:30:28.624Z,427.50
2023-03-22T08:31:28.674Z,433.12
2023-03-22T08:32:28.610Z,438.75
2023-03-22T08:33:28.597Z,455.62
2023-03-22T08:34:28.566Z,466.88
2023-03-22T08:35:29.405Z,472.50
2023-03-22T08:36:28.535Z,444.38
2023-03-22T08:37:28.585Z,433.12
2023-03-22T08:38:28.537Z,438.75
2023-03-22T08:39:29.512Z,410.62
2023-03-22T08:40:28.707Z,382.50
2023-03-22T08:41:29.949Z,376.88
2023-03-22T08:42:28.477Z,376.88
2023-03-22T08:43:28.946Z,376.88
2023-03-22T08:44:28.451Z,371.25
2023-03-22T08:45:29.457Z,365.62
2023-03-22T08:46:28.491Z,388.12
2023-03-22T08:47:28.427Z,382.50
2023-03-22T08:48:28.444Z,382.50
2023-03-22T08:49:29.568Z,388.12
2023-03-22T08:50:28.378Z,410.62
2023-03-22T08:51:29.035Z,438.75
2023-03-22T08:52:28.373Z,455.62
2023-03-22T08:53:28.375Z,466.88
2023-03-22T08:54:28.332Z,483.75
2023-03-22T08:55:28.319Z,506.25
2023-03-22T08:56:28.318Z,523.12
2023-03-22T08:57:28.377Z,511.88
2023-03-22T08:58:28.289Z,511.88
2023-03-22T08:59:28.290Z,511.88
2023-03-22T09:00:39.132Z,517.50
2023-03-22T09:01:30.595Z,540.00
2023-03-22T09:02:28.331Z,551.25
2023-03-22T09:03:29.247Z,562.50
2023-03-22T09:04:28.370Z,545.62
2023-03-22T09:05:28.207Z,540.00
2023-03-22T09:06:28.198Z,534.38
2023-03-22T09:07:29.367Z,489.38
2023-03-22T09:08:28.220Z,495.00
2023-03-22T09:09:28.179Z,511.88
2023-03-22T09:10:28.619Z,517.50
2023-03-22T09:11:28.129Z,523.12
2023-03-22T09:12:28.160Z,528.75
2023-03-22T09:13:28.135Z,568.12
2023-03-22T09:14:28.712Z,545.62
2023-03-22T09:15:28.088Z,585.00
2023-03-22T09:16:29.084Z,585.00
2023-03-22T09:17:28.105Z,579.38
2023-03-22T09:18:28.833Z,556.88
2023-03-22T09:19:28.568Z,500.62
2023-03-22T09:20:29.153Z,540.00
2023-03-22T09:21:28.017Z,556.88
2023-03-22T09:22:28.962Z,506.25
2023-03-22T09:23:28.010Z,511.88
2023-03-22T09:24:28.772Z,506.25
2023-03-22T09:25:28.086Z,500.62
2023-03-22T09:26:29.093Z,489.38
2023-03-22T09:27:27.939Z,478.12
2023-03-22T09:28:28.015Z,478.12
2023-03-22T09:29:27.931Z,466.88
2023-03-22T09:30:27.913Z,461.25
2023-03-22T09:31:27.916Z,478.12
2023-03-22T09:32:29.021Z,466.88
2023-03-22T09:33:27.900Z,450.00
2023-03-22T09:34:28.835Z,433.12
2023-03-22T09:35:27.884Z,399.38
2023-03-22T09:36:27.837Z,393.75
2023-03-22T09:37:27.831Z,416.25
2023-03-22T09:38:28.109Z,382.50
2023-03-22T09:39:27.811Z,410.62
2023-03-22T09:40:27.803Z,410.62
2023-03-22T09:41:28.681Z,421.88
2023-03-22T09:42:28.572Z,427.50
2023-03-22T09:43:28.475Z,405.00
2023-03-22T09:44:27.752Z,399.38
2023-03-22T09:45:35.775Z,410.62
2023-03-22T09:46:27.766Z,438.75
2023-03-22T09:47:33.217Z,466.88
2023-03-22T09:48:28.977Z,511.88
2023-03-22T09:49:27.682Z,540.00
2023-03-22T09:50:27.978Z,545.62
2023-03-22T09:51:27.664Z,545.62
2023-03-22T09:52:27.717Z,562.50
2023-03-22T09:53:27.645Z,573.75
2023-03-22T09:54:27.662Z,573.75
2023-03-22T09:55:27.613Z,601.88
2023-03-22T09:56:27.607Z,613.12
2023-03-22T09:57:27.593Z,624.38
2023-03-22T09:58:27.650Z,630.00
2023-03-22T09:59:28.476Z,624.38
2023-03-22T10:00:27.687Z,618.75
2023-03-22T10:01:27.684Z,607.50
2023-03-22T10:02:27.546Z,590.62
2023-03-22T10:03:27.543Z,579.38
2023-03-22T10:04:28.086Z,585.00
2023-03-22T10:05:27.529Z,590.62
2023-03-22T10:06:29.388Z,573.75
2023-03-22T10:07:27.489Z,579.38
2023-03-22T10:08:27.465Z,551.25
2023-03-22T10:09:27.476Z,545.62
2023-03-22T10:10:27.456Z,534.38
2023-03-22T10:11:27.448Z,534.38
2023-03-22T10:12:27.428Z,523.12
2023-03-22T10:13:27.473Z,506.25
2023-03-22T10:14:27.410Z,506.25
2023-03-22T10:15:27.409Z,506.25
2023-03-22T10:16:27.437Z,500.62
2023-03-22T10:17:27.377Z,528.75
2023-03-22T10:18:27.399Z,528.75
2023-03-22T10:19:27.358Z,523.12
2023-03-22T10:20:27.988Z,551.25
2023-03-22T10:21:27.331Z,540.00
2023-03-22T10:22:27.482Z,523.12
2023-03-22T10:23:27.645Z,517.50
2023-03-22T10:24:27.291Z,523.12
2023-03-22T10:25:27.295Z,551.25
2023-03-22T10:26:27.285Z,562.50
2023-03-22T10:27:27.260Z,545.62
2023-03-22T10:28:27.260Z,551.25
2023-03-22T10:29:27.240Z,540.00
2023-03-22T10:30:28.067Z,540.00
2023-03-22T10:31:27.248Z,556.88
2023-03-22T10:32:27.201Z,579.38
2023-03-22T10:33:27.200Z,618.75
2023-03-22T10:34:27.197Z,624.38
2023-03-22T10:35:28.119Z,630.00
2023-03-22T10:36:27.997Z,652.50
2023-03-22T10:37:27.180Z,652.50
2023-03-22T10:38:28.196Z,635.62
2023-03-22T10:39:27.412Z,646.88
2023-03-22T10:40:27.651Z,618.75
2023-03-22T10:41:27.133Z,601.88
2023-03-22T10:42:27.952Z,652.50
2023-03-22T10:43:27.131Z,669.38
2023-03-22T10:44:27.197Z,691.88
2023-03-22T10:45:27.416Z,691.88
2023-03-22T10:46:28.107Z,680.62
2023-03-22T10:47:27.059Z,646.88
2023-03-22T10:48:27.118Z,680.62
2023-03-22T10:49:27.774Z,663.75
2023-03-22T10:50:27.011Z,663.75
2023-03-22T10:51:28.096Z,663.75
2023-03-22T10:52:27.003Z,658.12
2023-03-22T10:53:27.898Z,658.12
2023-03-22T10:54:26.960Z,669.38
2023-03-22T10:55:27.724Z,680.62
2023-03-22T10:56:26.965Z,680.62
2023-03-22T10:57:28.047Z,675.00
2023-03-22T10:58:26.899Z,686.25
2023-03-22T10:59:27.840Z,691.88
2023-03-22T11:00:26.905Z,703.12
2023-03-22T11:01:27.764Z,708.75
2023-03-22T11:02:28.242Z,697.50
2023-03-22T11:03:27.980Z,697.50
2023-03-22T11:04:26.825Z,703.12
2023-03-22T11:05:26.827Z,691.88
2023-03-22T11:06:26.824Z,680.62
2023-03-22T11:07:27.599Z,675.00
2023-03-22T11:08:26.856Z,669.38
2023-03-22T11:09:26.790Z,669.38
2023-03-22T11:10:26.813Z,669.38
2023-03-22T11:11:27.722Z,658.12
2023-03-22T11:12:26.746Z,652.50
2023-03-22T11:13:27.525Z,646.88
2023-03-22T11:14:26.724Z,646.88
2023-03-22T11:15:26.703Z,652.50
2023-03-22T11:16:27.785Z,652.50
2023-03-22T11:17:26.689Z,652.50
2023-03-22T11:18:26.664Z,652.50
2023-03-22T11:19:26.683Z,652.50
2023-03-22T11:20:29.173Z,669.38
2023-03-22T11:21:26.635Z,652.50
2023-03-22T11:22:27.674Z,646.88
2023-03-22T11:23:27.038Z,646.88
2023-03-22T11:24:26.601Z,646.88
2023-03-22T11:25:26.584Z,641.25
2023-03-22T11:26:26.606Z,630.00
2023-03-22T11:27:26.567Z,624.38
2023-03-22T11:28:26.594Z,618.75
2023-03-22T11:29:26.832Z,613.12
2023-03-22T11:30:26.534Z,601.88
2023-03-22T11:31:26.543Z,601.88
2023-03-22T11:32:26.571Z,590.62
2023-03-22T11:33:26.476Z,590.62
2023-03-22T11:34:26.499Z,590.62
2023-03-22T11:35:27.500Z,590.62
2023-03-22T11:36:26.446Z,590.62
2023-03-22T11:37:26.481Z,585.00
2023-03-22T11:38:26.472Z,573.75
2023-03-22T11:39:26.421Z,568.12
2023-03-22T11:40:26.402Z,545.62
2023-03-22T11:41:26.437Z,528.75
2023-03-22T11:42:26.436Z,517.50
2023-03-22T11:43:26.387Z,517.50
2023-03-22T11:44:26.370Z,523.12
2023-03-22T11:45:26.353Z,528.75
2023-03-22T11:46:26.445Z,528.75
2023-03-22T11:47:26.378Z,523.12
2023-03-22T11:48:26.440Z,517.50
2023-03-22T11:49:27.130Z,511.88
2023-03-22T11:50:27.113Z,517.50
2023-03-22T11:51:26.284Z,517.50
2023-03-22T11:52:26.313Z,517.50
2023-03-22T11:53:26.276Z,523.12
2023-03-22T11:54:26.244Z,528.75
2023-03-22T11:55:27.076Z,534.38
2023-03-22T11:56:26.214Z,540.00
2023-03-22T11:57:27.403Z,534.38
2023-03-22T11:58:26.211Z,528.75
2023-03-22T11:59:27.223Z,523.12
2023-03-22T12:00:26.175Z,517.50
2023-03-22T12:01:26.689Z,517.50
2023-03-22T12:02:27.084Z,511.88
2023-03-22T12:03:26.285Z,511.88
2023-03-22T12:04:26.196Z,511.88
2023-03-22T12:05:26.126Z,511.88
2023-03-22T12:06:26.162Z,511.88
2023-03-22T12:07:26.186Z,506.25
2023-03-22T12:08:26.193Z,495.00
2023-03-22T12:09:26.076Z,489.38
2023-03-22T12:10:26.635Z,489.38
2023-03-22T12:11:26.049Z,489.38
2023-03-22T12:12:26.989Z,489.38
2023-03-22T12:13:26.922Z,495.00
2023-03-22T12:14:26.037Z,500.62
2023-03-22T12:15:26.006Z,506.25
2023-03-22T12:16:26.063Z,506.25
2023-03-22T12:17:26.091Z,500.62
2023-03-22T12:18:25.966Z,500.62
2023-03-22T12:19:26.425Z,506.25
2023-03-22T12:20:25.953Z,506.25
2023-03-22T12:21:25.949Z,511.88
2023-03-22T12:22:25.947Z,506.25
2023-03-22T12:23:25.958Z,500.62
2023-03-22T12:24:25.929Z,483.75
2023-03-22T12:25:25.898Z,455.62
2023-03-22T12:26:25.885Z,421.88
2023-03-22T12:27:25.869Z,388.12
2023-03-22T12:28:26.351Z,371.25
2023-03-22T12:29:26.885Z,365.62
2023-03-22T12:30:25.842Z,371.25
2023-03-22T12:31:26.511Z,376.88
2023-03-22T12:32:25.918Z,382.50
2023-03-22T12:33:25.815Z,382.50
2023-03-22T12:34:25.815Z,393.75
2023-03-22T12:35:26.841Z,410.62
2023-03-22T12:36:25.783Z,427.50
2023-03-22T12:37:25.773Z,438.75
2023-03-22T12:38:26.529Z,444.38
2023-03-22T12:39:25.732Z,438.75
2023-03-22T12:40:26.866Z,416.25
2023-03-22T12:41:25.732Z,393.75
2023-03-22T12:42:25.747Z,393.75
2023-03-22T12:43:25.829Z,382.50
2023-03-22T12:44:25.708Z,365.62
2023-03-22T12:45:25.676Z,348.75
2023-03-22T12:46:25.723Z,326.25
2023-03-22T12:47:25.737Z,315.00
2023-03-22T12:48:25.837Z,309.38
2023-03-22T12:49:25.698Z,320.62
2023-03-22T12:50:26.746Z,337.50